Time;durP1;ratioP1;P1;durP2;ratioP2;P2;SDS_P1;SDS_P2;PMS_P1;PMS_P2;Temp;Humidity;BMP_temperature;BMP_pressure;BME280_temperature;BME280_humidity;BME280_pressure;Samples;Min_cycle;Max_cycle;Signal;HPM_P1;HPM_P2
2022/02/14 00:02:00;;;;;;;13.93;8.05;;;;;;;3.41;82.06;97555.84;4174783;28;20228;-82
2022/02/14 00:04:05;;;;;;;10.15;8.38;;;;;;;3.39;81.38;97553.34;4176405;28;20209;-82
2022/02/14 00:06:08;;;;;;;11.43;7.80;;;;;;;3.40;81.71;97559.38;4205768;28;20558;-82
2022/02/14 00:08:13;;;;;;;12.68;9.57;;;;;;;3.39;81.49;97549.97;4189297;28;20205;-82
2022/02/14 00:10:16;;;;;;;10.77;8.10;;;;;;;3.35;81.63;97541.56;4171490;28;20721;-82
2022/02/14 00:12:19;;;;;;;11.18;8.45;;;;;;;3.38;81.86;97538.81;4192961;28;20210;-82
2022/02/14 00:14:22;;;;;;;12.38;8.85;;;;;;;3.37;81.70;97544.88;4170204;28;20329;-83
2022/02/14 00:16:25;;;;;;;12.05;8.60;;;;;;;3.38;81.41;97538.81;4188198;28;20211;-82
2022/02/14 00:18:29;;;;;;;11.18;8.18;;;;;;;3.36;81.30;97543.19;4188154;28;20229;-82
2022/02/14 00:20:33;;;;;;;12.40;8.88;;;;;;;3.34;81.47;97534.72;4191801;28;20263;-81
2022/02/14 00:22:37;;;;;;;13.07;8.35;;;;;;;3.35;81.98;97525.25;4189568;28;20369;-82
2022/02/14 00:24:40;;;;;;;10.98;7.90;;;;;;;3.35;81.68;97518.38;4191556;28;20211;-83
2022/02/14 00:26:43;;;;;;;12.20;8.65;;;;;;;3.35;81.60;97515.78;4193021;28;20628;-82
2022/02/14 00:28:46;;;;;;;11.38;7.63;;;;;;;3.35;81.64;97520.94;4186620;28;20256;-82
2022/02/14 00:30:49;;;;;;;12.57;8.00;;;;;;;3.39;81.38;97509.56;4186162;28;20251;-82
2022/02/14 00:32:53;;;;;;;13.23;8.32;;;;;;;3.42;81.05;97504.25;4192386;28;20265;-82
2022/02/14 00:34:56;;;;;;;12.77;8.93;;;;;;;3.39;81.22;97506.97;4187998;28;20246;-82
2022/02/14 00:37:03;;;;;;;15.02;9.52;;;;;;;3.31;81.40;97508.28;4173719;28;20198;-82
2022/02/14 00:39:07;;;;;;;14.55;9.43;;;;;;;3.28;81.04;97504.09;4174270;28;20202;-82
2022/02/14 00:41:10;;;;;;;16.25;10.15;;;;;;;3.29;81.49;97505.78;4172183;28;20202;-82
2022/02/14 00:43:14;;;;;;;15.50;10.20;;;;;;;3.28;81.75;97514.41;4205303;28;20224;-81
2022/02/14 00:45:17;;;;;;;16.65;11.00;;;;;;;3.29;82.05;97507.50;4175994;28;20198;-82
2022/02/14 00:47:20;;;;;;;13.73;9.48;;;;;;;3.31;81.70;97503.97;4187172;28;20267;-82
2022/02/14 00:49:23;;;;;;;15.43;9.40;;;;;;;3.33;81.80;97496.97;4191294;28;20205;-82
2022/02/14 00:51:26;;;;;;;14.63;9.70;;;;;;;3.31;81.52;97501.38;4191228;28;20254;-82
2022/02/14 00:53:31;;;;;;;13.52;9.18;;;;;;;3.35;81.48;97492.59;4175989;28;20228;-82
2022/02/14 00:55:36;;;;;;;13.70;9.55;;;;;;;3.39;81.67;97496.66;4180732;28;20229;-82
2022/02/14 00:57:40;;;;;;;11.45;6.88;;;;;;;3.40;82.09;97493.19;4189372;28;20208;-82
2022/02/14 00:59:43;;;;;;;12.57;8.15;;;;;;;3.41;82.42;97488.88;4205242;28;20217;-82
2022/02/14 01:01:47;;;;;;;11.32;7.35;;;;;;;3.43;81.95;97487.06;4191874;28;20207;-82
2022/02/14 01:03:50;;;;;;;9.25;6.65;;;;;;;3.45;82.39;97486.06;4171156;28;20203;-82
2022/02/14 01:05:53;;;;;;;10.15;7.50;;;;;;;3.46;82.05;97486.91;4189827;28;20559;-82
2022/02/14 01:07:56;;;;;;;12.15;7.63;;;;;;;3.50;82.55;97490.97;4174167;28;20272;-81
2022/02/14 01:10:01;;;;;;;11.75;8.98;;;;;;;3.53;82.66;97480.53;4174401;28;20195;-80
2022/02/14 01:12:04;;;;;;;14.18;7.93;;;;;;;3.53;81.96;97481.34;4192752;28;20204;-80
2022/02/14 01:14:08;;;;;;;12.30;8.13;;;;;;;3.55;82.76;97482.13;4190988;28;20233;-80
2022/02/14 01:16:11;;;;;;;11.02;7.40;;;;;;;3.58;82.42;97483.69;4194290;28;20193;-80
2022/02/14 01:18:14;;;;;;;10.45;6.70;;;;;;;3.60;81.97;97474.97;4195382;28;20209;-80
2022/02/14 01:20:17;;;;;;;10.13;6.93;;;;;;;3.64;82.17;97480.81;4192241;28;20209;-81
2022/02/14 01:22:20;;;;;;;11.80;7.50;;;;;;;3.66;81.86;97479.00;4188987;28;20256;-80
2022/02/14 01:24:23;;;;;;;9.45;7.50;;;;;;;3.67;81.82;97473.75;4190978;28;20207;-80
2022/02/14 01:26:27;;;;;;;13.75;7.82;;;;;;;3.69;82.29;97464.19;4193729;28;20274;-80
2022/02/14 01:28:31;;;;;;;13.60;7.13;;;;;;;3.72;81.49;97457.13;4205882;28;20206;-81
2022/02/14 01:30:34;;;;;;;11.00;7.78;;;;;;;3.73;82.02;97463.16;4177929;28;20215;-80
2022/02/14 01:32:37;;;;;;;10.50;7.00;;;;;;;3.72;82.30;97459.72;4178349;28;20210;-80
2022/02/14 01:34:40;;;;;;;12.48;7.80;;;;;;;3.73;82.04;97460.56;4210988;28;20781;-80
2022/02/14 01:36:43;;;;;;;12.30;8.13;;;;;;;3.73;82.67;97460.56;4208202;28;20231;-81
2022/02/14 01:38:46;;;;;;;12.55;8.07;;;;;;;3.74;82.52;97457.06;4177229;28;20288;-80
2022/02/14 01:40:49;;;;;;;10.30;7.47;;;;;;;3.74;82.16;97451.91;4193430;28;20214;-80
2022/02/14 01:42:54;;;;;;;15.43;8.20;;;;;;;3.76;82.50;97450.91;4210226;28;21712;-80
2022/02/14 01:44:57;;;;;;;10.60;7.75;;;;;;;3.77;82.10;97444.84;4195041;28;20264;-80
2022/02/14 01:47:00;;;;;;;11.82;8.00;;;;;;;3.80;82.41;97441.28;4177977;28;20273;-80
2022/02/14 01:49:04;;;;;;;13.20;7.88;;;;;;;3.82;82.81;97442.03;4192824;28;20656;-80
2022/02/14 01:51:08;;;;;;;12.88;7.25;;;;;;;3.82;81.78;97431.72;4193161;28;20214;-80
2022/02/14 01:53:11;;;;;;;13.32;7.65;;;;;;;3.84;82.60;97429.91;4194038;28;20608;-80
2022/02/14 01:55:16;;;;;;;13.15;7.50;;;;;;;3.85;81.33;97421.25;4206505;28;20210;-80
2022/02/14 01:57:20;;;;;;;13.45;7.22;;;;;;;3.84;81.46;97428.13;4193832;28;20731;-80
2022/02/14 01:59:25;;;;;;;9.88;7.15;;;;;;;3.85;82.50;97423.84;4192172;28;20217;-81
2022/02/14 02:01:28;;;;;;;9.95;7.40;;;;;;;3.88;82.17;97418.50;4191491;28;20198;-80
2022/02/14 02:03:31;;;;;;;13.07;6.88;;;;;;;3.92;82.57;97420.81;4177362;28;20286;-80
2022/02/14 02:05:34;;;;;;;11.02;6.97;;;;;;;3.91;81.82;97415.75;4189480;28;20217;-80
2022/02/14 02:07:37;;;;;;;9.73;6.25;;;;;;;3.92;82.10;97420.00;4194531;28;20251;-80
2022/02/14 02:09:42;;;;;;;12.73;7.35;;;;;;;3.94;81.83;97415.59;4177767;28;20213;-80
2022/02/14 02:14:05;;;;;;;10.73;7.15;;;;;;;3.98;81.24;97415.34;4181140;28;20284;-80
2022/02/14 02:16:14;;;;;;;12.65;6.60;;;;;;;4.01;82.02;97409.19;4191143;28;20198;-81
2022/02/14 02:18:17;;;;;;;9.60;6.20;;;;;;;4.02;81.70;97403.13;4191797;28;20206;-80
2022/02/14 02:20:22;;;;;;;9.60;6.18;;;;;;;4.04;81.31;97396.13;4193102;28;20214;-81
2022/02/14 02:22:25;;;;;;;8.93;6.20;;;;;;;4.05;81.69;97396.06;4170045;28;20208;-80
2022/02/14 02:24:28;;;;;;;10.73;6.55;;;;;;;4.05;81.58;97397.81;4174577;28;20237;-80
2022/02/14 02:26:34;;;;;;;8.43;6.22;;;;;;;4.07;82.05;97398.53;4208630;28;20203;-80
2022/02/14 02:28:38;;;;;;;11.13;7.25;;;;;;;4.08;81.56;97395.06;4189839;28;20698;-80
2022/02/14 02:30:41;;;;;;;12.07;7.32;;;;;;;4.08;82.01;97392.47;4191282;28;20236;-81
2022/02/14 02:32:44;;;;;;;11.23;7.00;;;;;;;4.07;81.93;97395.97;4192907;28;20744;-80
2022/02/14 02:34:47;;;;;;;11.25;7.50;;;;;;;4.08;81.63;97389.91;4174956;28;20200;-80
2022/02/14 02:36:52;;;;;;;11.88;7.07;;;;;;;4.10;82.40;97393.22;4194552;28;20207;-80
2022/02/14 02:38:55;;;;;;;11.93;7.28;;;;;;;4.11;82.26;97382.00;4179970;28;20567;-81
2022/02/14 02:40:58;;;;;;;9.85;6.60;;;;;;;4.13;82.21;97378.41;4192694;28;20248;-80
2022/02/14 02:43:03;;;;;;;15.57;6.47;;;;;;;4.08;81.58;97377.00;4173551;28;20257;-81
2022/02/14 02:45:07;;;;;;;13.02;6.40;;;;;;;4.10;81.06;97377.75;4188225;28;20203;-81
2022/02/14 02:47:11;;;;;;;11.23;7.20;;;;;;;4.12;80.57;97370.75;4192304;28;20209;-81
2022/02/14 02:49:19;;;;;;;10.65;7.78;;;;;;;4.13;81.67;97362.09;4189293;28;20922;-80
2022/02/14 02:51:22;;;;;;;13.77;8.60;;;;;;;4.10;81.71;97368.25;4191081;28;20207;-81
2022/02/14 02:53:25;;;;;;;9.50;6.22;;;;;;;4.12;81.37;97360.44;4207326;28;20208;-80
2022/02/14 02:55:28;;;;;;;12.88;7.22;;;;;;;4.11;81.39;97354.44;4172961;28;20948;-81
2022/02/14 02:57:32;;;;;;;12.20;7.72;;;;;;;4.12;81.14;97348.38;4189462;28;20209;-80
2022/02/14 02:59:37;;;;;;;11.25;6.90;;;;;;;4.15;81.92;97355.97;4191871;28;20218;-80
2022/02/14 03:01:41;;;;;;;9.35;7.68;;;;;;;4.16;81.92;97349.84;4191800;28;20214;-81
2022/02/14 03:03:44;;;;;;;11.40;7.18;;;;;;;4.17;81.98;97351.53;4193100;28;20224;-80
2022/02/14 03:05:47;;;;;;;11.60;6.70;;;;;;;4.18;81.50;97352.34;4205939;28;20303;-81
2022/02/14 03:07:50;;;;;;;12.00;7.25;;;;;;;4.19;81.78;97349.69;4192942;28;20584;-80
2022/02/14 03:09:53;;;;;;;9.45;7.05;;;;;;;4.21;81.85;97342.72;4174225;28;20250;-80
2022/02/14 03:11:57;;;;;;;12.25;6.80;;;;;;;4.22;81.74;97337.47;4192236;28;20202;-81
2022/02/14 03:14:00;;;;;;;12.55;8.07;;;;;;;4.23;81.39;97338.31;4188536;28;20225;-80
2022/02/14 03:16:05;;;;;;;11.65;7.57;;;;;;;4.22;80.66;97344.38;4173525;28;20234;-80
2022/02/14 03:18:08;;;;;;;11.32;6.75;;;;;;;4.21;81.06;97335.81;4193400;28;20271;-80
2022/02/14 03:20:12;;;;;;;11.77;7.13;;;;;;;4.20;80.70;97335.88;4191689;28;20208;-80
2022/02/14 03:22:15;;;;;;;10.13;7.15;;;;;;;4.19;81.32;97338.56;4190380;28;20272;-81
2022/02/14 03:24:19;;;;;;;9.60;6.65;;;;;;;4.22;80.58;97334.91;4174323;28;20269;-80
2022/02/14 03:26:22;;;;;;;10.82;6.47;;;;;;;4.20;81.12;97332.47;4171201;28;20902;-80
2022/02/14 03:28:27;;;;;;;9.57;6.10;;;;;;;4.15;80.89;97334.47;4170997;28;20265;-80
2022/02/14 03:30:30;;;;;;;9.35;6.38;;;;;;;4.16;80.63;97336.16;4173361;28;20211;-80
2022/02/14 03:32:35;;;;;;;10.32;5.70;;;;;;;4.16;80.75;97329.22;4191591;28;20210;-81
2022/02/14 03:34:38;;;;;;;12.40;5.95;;;;;;;4.16;80.43;97331.81;4191975;28;20215;-80
2022/02/14 03:36:41;;;;;;;9.63;5.28;;;;;;;4.15;81.73;97325.00;4188740;28;20213;-81
2022/02/14 03:38:45;;;;;;;10.18;6.32;;;;;;;4.17;81.78;97324.91;4190324;28;20210;-80
2022/02/14 03:40:48;;;;;;;11.20;6.45;;;;;;;4.14;81.15;97320.75;4185946;28;20296;-81
2022/02/14 03:42:51;;;;;;;9.23;5.30;;;;;;;4.16;81.19;97323.25;4187127;28;20203;-81
2022/02/14 03:44:54;;;;;;;8.88;6.10;;;;;;;4.19;80.59;97325.66;4189222;28;20254;-81
2022/02/14 03:46:57;;;;;;;9.45;6.30;;;;;;;4.19;81.40;97320.50;4192179;28;20217;-80
2022/02/14 03:49:02;;;;;;;7.72;6.25;;;;;;;4.20;80.44;97328.97;4189349;28;20204;-81
2022/02/14 03:51:05;;;;;;;7.95;6.15;;;;;;;4.20;80.51;97323.81;4193124;28;20199;-80
2022/02/14 03:53:08;;;;;;;11.10;6.45;;;;;;;4.20;82.04;97313.50;4192845;28;20744;-81
2022/02/14 03:55:12;;;;;;;9.32;5.90;;;;;;;4.21;81.31;97315.16;4174921;28;20241;-81
2022/02/14 03:57:15;;;;;;;14.05;6.20;;;;;;;4.24;80.80;97315.00;4193190;28;20259;-80
2022/02/14 03:59:18;;;;;;;10.60;6.22;;;;;;;4.22;81.64;97314.25;4191430;28;20241;-81
2022/02/14 04:01:21;;;;;;;9.65;6.40;;;;;;;4.23;81.46;97313.31;4186164;28;20253;-80
2022/02/14 04:03:25;;;;;;;9.10;5.80;;;;;;;4.24;81.41;97311.59;4169882;28;20213;-80
2022/02/14 04:05:30;;;;;;;8.85;5.88;;;;;;;4.23;80.84;97308.16;4205272;28;20224;-80
2022/02/14 04:07:33;;;;;;;10.02;6.10;;;;;;;4.25;80.79;97315.81;4207451;28;20204;-81
2022/02/14 04:09:36;;;;;;;9.52;5.88;;;;;;;4.27;80.81;97309.66;4189729;28;20220;-80
2022/02/14 04:11:40;;;;;;;7.72;5.85;;;;;;;4.24;80.50;97312.41;4191887;28;20752;-80
2022/02/14 04:13:43;;;;;;;7.78;5.78;;;;;;;4.26;80.75;97310.56;4191749;28;20227;-80
2022/02/14 04:15:46;;;;;;;16.10;6.28;;;;;;;4.26;81.80;97308.00;4204274;28;20698;-80
2022/02/14 04:17:49;;;;;;;10.60;6.28;;;;;;;4.27;81.48;97312.25;4173247;28;20207;-81
2022/02/14 04:19:52;;;;;;;9.63;6.13;;;;;;;4.27;81.58;97309.66;4190468;28;20214;-80
2022/02/14 04:21:56;;;;;;;8.20;5.50;;;;;;;4.27;81.61;97298.53;4193593;28;20677;-80
2022/02/14 04:23:59;;;;;;;10.50;7.30;;;;;;;4.26;80.46;97300.25;4175104;28;20891;-81
2022/02/14 04:26:04;;;;;;;8.93;5.20;;;;;;;4.26;80.64;97304.59;4186110;28;20305;-81
2022/02/14 04:28:07;;;;;;;6.90;5.60;;;;;;;4.21;81.05;97296.28;4203316;28;20201;-80
2022/02/14 04:30:12;;;;;;;9.20;6.65;;;;;;;4.20;80.75;97291.22;4202606;28;20202;-80
2022/02/14 04:32:15;;;;;;;10.88;5.97;;;;;;;4.21;80.40;97298.88;4187478;28;20213;-80
2022/02/14 04:34:19;;;;;;;10.18;5.38;;;;;;;4.19;80.75;97294.69;4189220;28;20199;-81
2022/02/14 04:36:22;;;;;;;12.50;5.80;;;;;;;4.19;81.73;97297.28;4190593;28;20210;-80
2022/02/14 04:38:26;;;;;;;11.35;6.15;;;;;;;4.15;81.08;97298.34;4188674;28;20612;-80
2022/02/14 04:40:31;;;;;;;8.80;6.35;;;;;;;4.13;81.60;97302.78;4191553;28;20208;-80
2022/02/14 04:42:34;;;;;;;12.10;5.95;;;;;;;4.14;81.12;97296.72;4191290;28;20321;-80
2022/02/14 04:44:37;;;;;;;9.27;6.15;;;;;;;4.13;80.54;97284.72;4172309;28;20223;-80
2022/02/14 04:46:40;;;;;;;9.05;5.38;;;;;;;4.11;80.67;97283.97;4192706;28;20211;-81
2022/02/14 04:48:44;;;;;;;9.57;5.80;;;;;;;4.10;80.56;97287.47;4176314;28;20207;-80
2022/02/14 04:50:47;;;;;;;9.02;5.20;;;;;;;4.07;80.77;97297.97;4193919;28;20229;-80
2022/02/14 04:52:50;;;;;;;14.18;5.95;;;;;;;4.04;80.71;97293.78;4175633;28;20221;-80
2022/02/14 04:54:54;;;;;;;10.45;6.15;;;;;;;4.01;81.18;97301.69;4187590;28;20206;-80
2022/02/14 04:56:58;;;;;;;8.48;5.78;;;;;;;4.00;80.68;97294.03;4208701;28;20205;-81
2022/02/14 04:59:01;;;;;;;8.82;6.13;;;;;;;3.96;81.06;97288.22;4209193;28;20221;-80
2022/02/14 05:01:04;;;;;;;9.63;5.55;;;;;;;3.96;81.17;97292.56;4192549;28;20239;-81
2022/02/14 05:03:07;;;;;;;9.02;5.35;;;;;;;3.94;81.40;97281.47;4177986;28;20207;-81
2022/02/14 05:05:11;;;;;;;9.52;6.22;;;;;;;3.93;81.10;97283.25;4174667;28;20234;-80
2022/02/14 05:07:16;;;;;;;8.82;6.00;;;;;;;3.92;80.76;97285.91;4209505;28;20779;-80
2022/02/14 05:09:19;;;;;;;9.68;6.28;;;;;;;3.94;81.85;97284.06;4176402;28;20739;-81
2022/02/14 05:11:23;;;;;;;7.07;5.40;;;;;;;3.95;81.36;97286.56;4194041;28;20198;-81
2022/02/14 05:13:26;;;;;;;10.90;6.45;;;;;;;3.95;80.99;97285.75;4189110;28;20231;-81
2022/02/14 05:15:30;;;;;;;8.02;5.88;;;;;;;3.93;81.03;97282.44;4191292;28;20202;-80
2022/02/14 05:17:33;;;;;;;10.50;6.38;;;;;;;3.87;80.68;97282.75;4195084;28;20202;-80
2022/02/14 05:19:36;;;;;;;13.02;7.25;;;;;;;3.87;81.38;97281.00;4192117;28;20250;-80
2022/02/14 05:21:41;;;;;;;10.57;7.47;;;;;;;3.85;80.65;97280.25;4178737;28;20550;-80
2022/02/14 05:23:44;;;;;;;11.50;7.20;;;;;;;3.81;81.35;97277.94;4173922;28;20214;-81
2022/02/14 05:25:52;;;;;;;10.52;6.70;;;;;;;3.80;81.89;97278.84;4194098;28;20270;-80
2022/02/14 05:27:57;;;;;;;11.77;7.32;;;;;;;3.80;81.82;97276.25;4193682;28;20268;-80
2022/02/14 05:30:00;;;;;;;9.50;7.00;;;;;;;3.79;81.53;97284.94;4174954;28;20219;-80
2022/02/14 05:32:03;;;;;;;9.07;6.55;;;;;;;3.78;81.59;97278.94;4190956;28;20205;-81
2022/02/14 05:34:06;;;;;;;8.82;6.15;;;;;;;3.77;82.09;97279.88;4172429;28;20297;-81
2022/02/14 05:36:09;;;;;;;14.20;6.43;;;;;;;3.77;81.13;97287.59;4193577;28;20206;-80
2022/02/14 05:38:12;;;;;;;12.38;7.60;;;;;;;3.76;81.98;97279.94;4193845;28;20216;-81
2022/02/14 05:40:16;;;;;;;10.10;7.90;;;;;;;3.77;81.63;97286.75;4176443;28;20210;-80
2022/02/14 05:42:19;;;;;;;10.93;8.18;;;;;;;3.76;81.53;97285.09;4194757;28;20199;-80
2022/02/14 05:44:23;;;;;;;9.27;6.70;;;;;;;3.73;82.71;97280.94;4178989;28;20208;-81
2022/02/14 05:46:26;;;;;;;12.25;7.25;;;;;;;3.72;81.72;97277.63;4198931;28;20227;-81
2022/02/14 05:48:29;;;;;;;10.85;6.82;;;;;;;3.72;82.36;97279.25;4177256;28;20756;-81
2022/02/14 05:50:33;;;;;;;8.02;6.18;;;;;;;3.74;81.81;97276.59;4192465;28;20208;-80
2022/02/14 05:52:37;;;;;;;9.80;7.53;;;;;;;3.74;82.02;97276.59;4194902;28;20293;-81
2022/02/14 05:54:40;;;;;;;8.35;6.75;;;;;;;3.73;82.18;97280.94;4189404;28;20302;-81
2022/02/14 05:56:43;;;;;;;13.93;6.85;;;;;;;3.74;82.29;97284.34;4189946;28;20223;-81
2022/02/14 05:58:46;;;;;;;9.32;6.45;;;;;;;3.74;82.54;97280.03;4186414;28;20731;-80
2022/02/14 06:00:54;;;;;;;9.95;6.75;;;;;;;3.76;82.05;97287.69;4193380;28;20426;-81
2022/02/14 06:02:57;;;;;;;9.77;6.80;;;;;;;3.76;82.84;97285.94;4193128;28;20210;-81
2022/02/14 06:05:00;;;;;;;11.77;8.00;;;;;;;3.77;81.94;97279.00;4193777;28;20206;-81
2022/02/14 06:07:04;;;;;;;12.05;8.65;;;;;;;3.75;82.38;97278.28;4206294;28;20343;-80
2022/02/14 06:09:07;;;;;;;13.27;9.15;;;;;;;3.73;82.55;97287.84;4195796;28;20203;-81
2022/02/14 06:11:11;;;;;;;11.18;7.35;;;;;;;3.74;82.03;97285.19;4190416;28;20223;-81
2022/02/14 06:13:14;;;;;;;10.68;6.78;;;;;;;3.72;82.15;97288.75;4173717;28;20466;-81
2022/02/14 06:15:17;;;;;;;10.18;6.90;;;;;;;3.72;82.13;97283.59;4189927;28;20206;-81
2022/02/14 06:17:21;;;;;;;10.65;6.90;;;;;;;3.69;81.47;97291.50;4186920;28;20669;-81
2022/02/14 06:19:24;;;;;;;10.27;6.50;;;;;;;3.67;82.29;97290.75;4190270;28;20744;-80
2022/02/14 06:21:28;;;;;;;11.27;6.35;;;;;;;3.63;82.39;97289.25;4191727;28;20271;-81
2022/02/14 06:23:31;;;;;;;12.13;6.57;;;;;;;3.63;82.59;97289.25;4193098;28;20217;-80
2022/02/14 06:25:34;;;;;;;8.52;6.45;;;;;;;3.64;82.14;97296.06;4192263;28;20853;-81
2022/02/14 06:27:38;;;;;;;11.10;6.68;;;;;;;3.64;82.58;97305.53;4191095;28;20217;-82
2022/02/14 06:29:41;;;;;;;9.30;6.00;;;;;;;3.63;82.38;97294.41;4189201;28;20215;-81
2022/02/14 06:31:44;;;;;;;10.02;6.70;;;;;;;3.63;82.74;97296.97;4192043;28;20293;-81
2022/02/14 06:33:48;;;;;;;13.23;6.70;;;;;;;3.65;82.65;97294.31;4194950;28;20210;-82
2022/02/14 06:35:52;;;;;;;8.05;5.93;;;;;;;3.65;82.96;97297.72;4194041;28;20230;-80
2022/02/14 06:37:56;;;;;;;7.88;6.00;;;;;;;3.65;82.31;97300.28;4195717;28;20209;-80
2022/02/14 06:39:59;;;;;;;11.35;6.32;;;;;;;3.63;82.89;97304.72;4179032;28;20642;-80
2022/02/14 06:42:02;;;;;;;8.95;6.15;;;;;;;3.61;82.43;97297.97;4195137;28;20205;-81
2022/02/14 06:44:05;;;;;;;8.40;5.75;;;;;;;3.60;83.00;97297.16;4195380;28;20189;-80
2022/02/14 06:46:11;;;;;;;8.45;6.35;;;;;;;3.62;82.41;97309.94;4189565;28;20676;-80
2022/02/14 06:48:14;;;;;;;11.80;7.03;;;;;;;3.63;82.97;97304.72;4193866;28;20206;-81
2022/02/14 06:50:21;;;;;;;11.15;6.30;;;;;;;3.66;82.40;97312.28;4195025;28;20263;-81
2022/02/14 06:52:24;;;;;;;11.52;6.57;;;;;;;3.67;82.67;97302.78;4188566;28;20616;-82
2022/02/14 06:54:29;;;;;;;9.45;5.75;;;;;;;3.67;82.72;97321.69;4202444;28;20240;-81
2022/02/14 06:56:33;;;;;;;11.30;6.70;;;;;;;3.68;83.02;97310.44;4207747;28;20235;-82
2022/02/14 06:58:36;;;;;;;8.73;5.45;;;;;;;3.70;82.66;97316.38;4177036;28;20310;-79
2022/02/14 07:00:40;;;;;;;10.65;6.55;;;;;;;3.73;82.52;97318.78;4170533;28;20687;-80
2022/02/14 07:02:43;;;;;;;13.75;8.55;;;;;;;3.77;82.91;97322.84;4185097;28;20731;-81
2022/02/14 07:04:46;;;;;;;14.23;7.65;;;;;;;3.77;82.24;97313.38;4192760;28;20218;-81
2022/02/14 07:06:51;;;;;;;18.48;11.25;;;;;;;3.77;82.21;97321.13;4173568;28;20284;-80
2022/02/14 07:08:54;;;;;;;14.32;7.38;;;;;;;3.81;82.54;97320.00;4176848;28;20210;-80
2022/02/14 07:10:59;;;;;;;15.60;8.60;;;;;;;3.81;81.99;97317.44;4171516;28;20208;-79
2022/02/14 07:13:03;;;;;;;17.13;9.60;;;;;;;3.80;82.21;97307.19;4195921;28;20236;-80
2022/02/14 07:15:09;;;;;;;12.77;8.13;;;;;;;3.82;82.39;97313.94;4195879;28;20237;-79
2022/02/14 07:17:13;;;;;;;14.63;7.88;;;;;;;3.82;82.29;97313.94;4200697;28;20647;-80
2022/02/14 07:19:18;;;;;;;15.18;8.50;;;;;;;3.82;82.01;97321.69;4195121;28;20205;-79
2022/02/14 07:21:22;;;;;;;14.07;8.88;;;;;;;3.82;82.42;97321.69;4210793;28;20309;-79
2022/02/14 07:23:28;;;;;;;17.65;9.25;;;;;;;3.84;83.05;97319.03;4189344;28;20208;-79
2022/02/14 07:25:31;;;;;;;14.73;8.18;;;;;;;3.83;83.13;97315.63;4208192;28;20210;-80
2022/02/14 07:27:35;;;;;;;13.23;8.45;;;;;;;3.84;82.54;97319.03;4192368;28;20225;-80
2022/02/14 07:29:38;;;;;;;17.55;9.55;;;;;;;3.87;82.04;97316.28;4191066;28;20206;-80
2022/02/14 07:31:41;;;;;;;15.98;9.73;;;;;;;3.89;82.26;97311.84;4195203;28;20320;-80
2022/02/14 07:33:45;;;;;;;14.77;9.07;;;;;;;3.93;82.82;97313.38;4195360;28;20213;-80
2022/02/14 07:35:48;;;;;;;15.32;9.60;;;;;;;3.96;82.41;97313.19;4194997;28;20204;-80
2022/02/14 07:37:51;;;;;;;15.73;9.15;;;;;;;4.00;82.72;97314.69;4187943;28;20198;-80
2022/02/14 07:39:56;;;;;;;14.75;9.38;;;;;;;4.03;81.76;97314.50;4195654;28;20190;-80
2022/02/14 07:41:59;;;;;;;16.00;9.65;;;;;;;4.09;81.95;97315.03;4208779;28;20194;-80
2022/02/14 07:44:06;;;;;;;18.08;9.63;;;;;;;4.19;82.20;97305.84;4190758;28;20207;-81
2022/02/14 07:46:09;;;;;;;16.23;9.25;;;;;;;4.29;82.15;97312.16;4187354;28;20201;-80
2022/02/14 07:48:12;;;;;;;37.75;22.92;;;;;;;4.49;82.52;97310.09;4187635;28;20586;-81
2022/02/14 07:50:17;;;;;;;19.65;9.68;;;;;;;4.69;82.76;97305.47;4205728;28;20213;-81
2022/02/14 07:52:20;;;;;;;16.80;9.27;;;;;;;4.81;81.31;97311.66;4185327;28;20211;-82
2022/02/14 07:54:23;;;;;;;13.43;8.35;;;;;;;4.83;80.40;97317.56;4187031;28;20249;-81
2022/02/14 07:56:28;;;;;;;20.30;8.60;;;;;;;4.85;79.67;97316.53;4189083;28;20221;-81
2022/02/14 07:58:31;;;;;;;13.93;9.25;;;;;;;4.92;80.35;97320.44;4187436;28;20209;-81
2022/02/14 08:00:36;;;;;;;12.32;8.20;;;;;;;5.01;80.21;97314.75;4189787;28;20203;-81
2022/02/14 08:02:39;;;;;;;11.82;7.75;;;;;;;5.03;80.43;97312.06;4192082;28;20207;-81
2022/02/14 08:04:43;;;;;;;15.38;9.10;;;;;;;5.05;80.10;97311.06;4190779;28;20648;-81
2022/02/14 08:06:47;;;;;;;17.52;10.75;;;;;;;5.05;80.12;97299.88;4206217;28;20230;-81
2022/02/14 08:08:51;;;;;;;18.95;10.88;;;;;;;5.05;80.15;97305.91;4209952;28;20256;-81
2022/02/14 08:10:55;;;;;;;14.35;9.30;;;;;;;5.06;79.82;97307.53;4192755;28;20217;-81
2022/02/14 08:12:59;;;;;;;16.25;9.02;;;;;;;5.09;80.44;97297.03;4206730;28;20231;-81
2022/02/14 08:15:04;;;;;;;18.50;10.38;;;;;;;5.13;80.51;97301.09;4187844;28;20233;-81
2022/02/14 08:17:07;;;;;;;14.93;9.25;;;;;;;5.13;79.77;97297.66;4176014;28;20213;-81
2022/02/14 08:19:10;;;;;;;14.13;9.82;;;;;;;5.12;79.55;97296.03;4191103;28;20195;-81
2022/02/14 08:21:14;;;;;;;11.38;8.15;;;;;;;5.09;80.31;97296.22;4172870;28;20690;-82
2022/02/14 08:23:17;;;;;;;14.98;8.63;;;;;;;5.10;79.65;97303.00;4188912;28;20701;-81
2022/02/14 08:25:21;;;;;;;14.40;9.27;;;;;;;5.12;79.62;97303.78;4194569;28;20206;-81
2022/02/14 08:27:24;;;;;;;15.57;9.63;;;;;;;5.15;79.34;97301.81;4190947;28;20227;-81
2022/02/14 08:29:32;;;;;;;13.93;8.90;;;;;;;5.15;80.10;97301.81;4210179;28;20725;-81
2022/02/14 08:31:35;;;;;;;14.50;9.90;;;;;;;5.15;79.52;97302.66;4194277;28;20212;-81
2022/02/14 08:33:38;;;;;;;13.00;9.05;;;;;;;5.16;79.48;97288.00;4194783;28;20721;-81
2022/02/14 08:35:41;;;;;;;11.73;9.90;;;;;;;5.19;79.85;97290.41;4169721;28;20564;-81
2022/02/14 08:37:44;;;;;;;13.30;9.52;;;;;;;5.30;80.08;97293.16;4193044;28;20658;-82
2022/02/14 08:39:47;;;;;;;14.15;10.13;;;;;;;5.53;79.36;97288.22;4190102;28;20207;-81
2022/02/14 08:41:52;;;;;;;12.70;8.90;;;;;;;5.78;79.60;97283.25;4191272;28;20209;-82
2022/02/14 08:43:55;;;;;;;15.18;9.60;;;;;;;5.91;78.75;97289.31;4189216;28;20209;-82
2022/02/14 08:46:01;;;;;;;34.05;20.25;;;;;;;5.85;77.21;97284.50;4174147;28;20649;-82
2022/02/14 08:48:05;;;;;;;81.50;43.55;;;;;;;5.80;77.14;97291.75;4204058;28;20713;-82
2022/02/14 08:50:08;;;;;;;27.60;14.70;;;;;;;5.93;78.93;97290.06;4202884;28;20203;-82
2022/02/14 08:52:13;;;;;;;27.98;16.10;;;;;;;6.16;79.34;97283.34;4200514;28;20217;-81
2022/02/14 08:54:16;;;;;;;20.85;13.18;;;;;;;6.51;79.15;97275.84;4191299;28;20255;-81
2022/02/14 08:56:19;;;;;;;20.40;12.73;;;;;;;6.83;79.09;97276.22;4174430;28;20554;-82
2022/02/14 08:58:23;;;;;;;24.00;14.77;;;;;;;7.20;77.52;97283.16;4189936;28;20208;-81
2022/02/14 09:00:26;;;;;;;27.52;17.33;;;;;;;7.51;77.03;97283.56;4191229;28;20257;-82
2022/02/14 09:02:30;;;;;;;31.15;18.02;;;;;;;7.72;76.24;97282.91;4172450;28;20209;-81
2022/02/14 09:04:34;;;;;;;23.10;13.85;;;;;;;7.97;78.12;97285.44;4186938;28;20260;-81
2022/02/14 09:06:37;;;;;;;28.92;18.83;;;;;;;8.00;74.83;97282.63;4190993;28;20210;-80
2022/02/14 09:09:00;;;;;;;29.05;19.13;;;;;;;8.13;76.59;97273.88;4191061;28;20193;-81
2022/02/14 09:11:04;;;;;;;29.20;19.35;;;;;;;8.13;76.59;97271.28;4206397;28;20293;-81
2022/02/14 09:13:08;;;;;;;24.23;17.00;;;;;;;8.22;75.55;97275.78;4172808;28;20674;-82
2022/02/14 09:15:11;;;;;;;22.58;17.45;;;;;;;8.38;75.30;97278.13;4172570;28;20602;-80
2022/02/14 09:17:15;;;;;;;24.63;16.70;;;;;;;8.60;77.14;97274.69;4173835;28;20213;-80
2022/02/14 09:19:19;;;;;;;21.90;16.80;;;;;;;8.91;77.82;97273.22;4170072;28;20203;-81
2022/02/14 09:21:23;;;;;;;23.52;16.83;;;;;;;9.19;78.40;97276.25;4189756;28;20569;-82
2022/02/14 09:23:26;;;;;;;26.20;16.27;;;;;;;9.45;78.36;97271.50;4190202;28;20205;-82
2022/02/14 09:25:29;;;;;;;23.30;16.17;;;;;;;9.76;78.41;97267.34;4190894;28;20207;-82
2022/02/14 09:27:35;;;;;;;23.90;15.00;;;;;;;10.14;77.93;97258.22;4191482;28;20221;-82
2022/02/14 09:29:38;;;;;;;13.43;9.07;;;;;;;10.44;73.21;97260.00;4173651;28;20647;-82
2022/02/14 09:31:41;;;;;;;8.85;4.25;;;;;;;10.72;65.86;97263.78;4195011;28;20209;-82
2022/02/14 09:33:44;;;;;;;7.95;5.68;;;;;;;10.95;67.27;97261.78;4197113;28;20314;-82
2022/02/14 09:35:49;;;;;;;6.88;5.03;;;;;;;11.35;64.72;97270.53;4212067;28;20205;-82
2022/02/14 09:37:53;;;;;;;4.82;3.28;;;;;;;11.64;59.22;97267.13;4213770;28;20207;-82
2022/02/14 09:39:56;;;;;;;7.95;3.58;;;;;;;11.56;59.05;97266.97;4208626;28;20205;-82
2022/02/14 09:42:00;;;;;;;4.20;2.43;;;;;;;11.47;57.14;97259.94;4195878;28;20248;-82
2022/02/14 09:44:04;;;;;;;5.40;3.07;;;;;;;11.50;56.71;97259.66;4171297;28;20624;-82
2022/02/14 09:46:11;;;;;;;7.60;2.77;;;;;;;11.63;56.80;97259.44;4172925;28;21464;-82